.
WxDataArchive / Data Records for 2013-06-03
2013-06-02 June 2013 2013-06-04

Data Records for Monday, 03 June 2013

Time	Temp	Chill	HIndex	Humid	Dewpt	 Wind 	HiWind	WindDir	Rain 	Barom 
-----	----	-----	------	-----	-----	------	------	-------	-----	----- 
00:00	50.8	50.8	50.8	77	43.9	0	1	292	0.00	29.993 
00:05	50.7	50.7	50.7	78	44.1	0	1	292	0.00	29.993 
00:10	50.5	50.5	50.5	78	43.9	0	1	292	0.00	29.993 
00:15	50.4	50.4	50.4	78	43.8	0	1	292	0.00	29.992 
00:20	50.2	50.2	50.2	79	43.9	0	1	292	0.00	29.992 
00:25	50.1	50.1	50.1	79	43.8	0	3	315	0.00	29.992 
00:30	50.1	50.1	50.1	79	43.8	0	2	315	0.00	29.992 
00:35	50.1	50.1	50.1	79	43.8	0	1	315	0.00	29.992 
00:40	49.9	49.9	49.9	79	43.6	0	1	315	0.00	29.992 
00:45	49.9	49.9	49.9	80	44.0	0	1	315	0.00	29.993 
00:50	49.8	49.8	49.8	80	43.9	0	1	315	0.00	29.993 
00:55	49.6	49.6	49.6	80	43.7	0	1	315	0.00	29.993 
01:00	49.5	49.5	49.5	80	43.6	0	2	315	0.00	29.994 
01:05	49.5	49.5	49.5	81	43.9	0	2	315	0.00	29.994 
01:10	49.4	49.4	49.4	80	43.5	0	1	315	0.00	29.994 
01:15	49.4	49.4	49.4	80	43.5	0	3	315	0.00	29.995 
01:20	49.4	49.4	49.4	80	43.5	0	3	315	0.00	29.995 
01:25	49.5	49.5	49.5	80	43.6	0	1	315	0.00	29.995 
01:30	49.5	49.5	49.5	80	43.6	0	2	315	0.00	29.993 
01:35	49.6	49.6	49.6	80	43.7	0	2	315	0.00	29.993 
01:40	49.6	49.6	49.6	80	43.7	0	2	315	0.00	29.993 
01:45	49.8	49.8	49.8	79	43.6	0	1	315	0.00	29.995 
01:50	49.8	49.8	49.8	79	43.6	0	2	315	0.00	29.995 
01:55	49.9	49.9	49.9	79	43.6	0	1	315	0.00	29.995 
02:00	49.9	49.9	49.9	79	43.6	0	2	315	0.00	29.992 
02:05	49.9	49.9	49.9	79	43.6	0	1	315	0.00	29.992 
02:10	50.1	50.1	50.1	79	43.8	0	2	315	0.00	29.992 
02:15	50.1	50.1	50.1	79	43.8	0	1	315	0.00	29.992 
02:20	50.1	50.1	50.1	79	43.8	0	1	315	0.00	29.992 
02:25	50.1	50.1	50.1	80	44.2	0	1	315	0.00	29.992 
02:30	50.2	50.2	50.2	80	44.3	0	1	315	0.00	29.991 
02:35	50.2	50.2	50.2	80	44.3	0	1	315	0.00	29.991 
02:40	50.2	50.2	50.2	80	44.3	0	1	315	0.00	29.991 
02:45	50.4	50.4	50.4	80	44.5	0	1	315	0.00	29.989 
02:50	50.4	50.4	50.4	81	44.8	0	1	315	0.00	29.989 
02:55	50.4	50.4	50.4	81	44.8	0	1	315	0.00	29.989 
03:00	50.5	50.5	50.5	81	44.9	0	1	315	0.00	29.985 
03:05	50.5	50.5	50.5	81	44.9	0	1	315	0.00	29.985 
03:10	50.7	50.7	50.7	81	45.1	0	1	315	0.00	29.985 
03:15	50.7	50.7	50.7	81	45.1	0	0	---	0.00	29.982 
03:20	50.8	50.8	50.8	82	45.5	0	0	---	0.00	29.982 
03:25	50.8	50.8	50.8	82	45.5	0	1	315	0.00	29.982 
03:30	50.8	50.8	50.8	82	45.5	0	1	315	0.00	29.986 
03:35	51.0	51.0	51.0	82	45.7	0	1	315	0.00	29.986 
03:40	51.0	51.0	51.0	82	45.7	0	1	315	0.00	29.986 
03:45	51.0	51.0	51.0	81	45.4	0	2	315	0.00	29.986 
03:50	51.1	51.1	51.1	81	45.5	0	2	315	0.00	29.986 
03:55	51.1	51.1	51.1	82	45.8	0	1	315	0.00	29.986 
04:00	51.1	51.1	51.1	81	45.5	0	2	315	0.00	29.988 
04:05	51.1	51.1	51.1	82	45.8	0	1	315	0.00	29.988 
04:10	51.3	51.3	51.3	82	46.0	0	1	315	0.00	29.988 
04:15	51.3	51.3	51.3	82	46.0	0	3	315	0.00	29.989 
04:20	51.3	51.3	51.3	82	46.0	0	2	315	0.00	29.989 
04:25	51.3	51.3	51.3	82	46.0	0	2	315	0.00	29.989 
04:30	51.3	51.3	51.3	82	46.0	0	2	315	0.00	29.988 
04:35	51.3	51.3	51.3	82	46.0	0	2	315	0.00	29.988 
04:40	51.4	51.4	51.4	82	46.1	0	2	315	0.00	29.988 
04:45	51.4	51.4	51.4	82	46.1	0	3	315	0.00	29.990 
04:50	51.6	51.6	51.6	82	46.3	0	3	315	0.00	29.990 
04:55	51.6	51.6	51.6	82	46.3	0	3	315	0.00	29.990 
05:00	51.6	51.6	51.6	82	46.3	0	3	315	0.00	29.990 
05:05	51.6	51.6	51.6	82	46.3	1	3	135	0.00	29.990 
05:10	51.7	51.7	51.7	82	46.4	0	2	270	0.00	29.990 
05:15	51.7	51.7	51.7	82	46.4	0	3	202	0.00	29.995 
05:20	51.7	51.7	51.7	82	46.4	0	3	315	0.00	29.995 
05:25	51.7	51.7	51.7	82	46.4	0	3	315	0.00	29.995 
05:30	51.7	51.7	51.7	81	46.1	1	4	315	0.00	30.001 
05:35	51.9	51.9	51.9	81	46.3	0	4	292	0.00	30.001 
05:40	51.9	51.9	51.9	81	46.3	0	1	292	0.00	30.001 
05:45	51.9	51.9	51.9	81	46.3	0	3	292	0.00	30.007 
05:50	51.9	51.9	51.9	80	45.9	0	2	90	0.00	30.007 
05:55	51.9	51.9	51.9	80	45.9	0	3	90	0.00	30.007 
06:00	51.7	51.7	51.7	78	45.1	0	4	292	0.00	30.007 
06:05	51.6	51.6	51.6	76	44.3	1	6	112	0.00	30.007 
06:10	51.4	51.4	51.4	75	43.7	1	9	68	0.00	30.007 
06:15	51.4	51.4	51.4	75	43.7	1	3	315	0.00	30.013 
06:20	51.3	51.3	51.3	75	43.6	0	3	315	0.00	30.013 
06:25	51.3	51.3	51.3	75	43.6	0	3	292	0.00	30.013 
06:30	51.1	51.1	51.1	76	43.8	0	2	135	0.00	30.017 
06:35	51.0	51.0	51.0	75	43.4	1	3	135	0.00	30.017 
06:40	51.0	51.0	51.0	75	43.4	1	4	135	0.00	30.017 
06:45	51.0	51.0	51.0	76	43.7	0	4	68	0.00	30.025 
06:50	50.8	50.8	50.8	74	42.8	1	4	338	0.00	30.025 
06:55	50.7	50.7	50.7	73	42.4	1	5	135	0.00	30.025 
07:00	50.7	50.7	50.7	74	42.7	0	3	225	0.00	30.029 
07:05	50.7	50.7	50.7	74	42.7	0	2	225	0.00	30.029 
07:10	50.7	50.7	50.7	75	43.1	0	2	225	0.00	30.029 
07:15	50.7	50.7	50.7	74	42.7	0	3	135	0.00	30.036 
07:20	51.0	51.0	51.0	73	42.7	1	4	135	0.00	30.036 
07:25	51.1	51.1	51.1	73	42.7	0	4	135	0.00	30.036 
07:30	51.3	51.3	51.3	73	42.9	0	3	135	0.00	30.039 
07:35	51.7	51.7	51.7	71	42.6	1	5	135	0.00	30.039 
07:40	51.9	51.9	51.9	69	42.1	0	3	45	0.00	30.039 
07:45	52.2	52.2	52.2	69	42.3	0	2	45	0.00	30.043 
07:50	52.5	52.5	52.5	67	41.9	0	3	90	0.00	30.043 
07:55	53.2	53.2	53.2	65	41.7	1	3	90	0.00	30.043 
08:00	53.5	53.5	53.5	62	40.8	0	2	90	0.00	30.042 
08:05	53.8	53.8	53.8	60	40.2	1	3	112	0.00	30.042 
08:10	54.2	54.2	54.2	58	39.7	1	3	112	0.00	30.042 
08:15	54.5	54.5	54.5	59	40.5	1	5	90	0.00	30.047 
08:20	54.8	54.8	54.8	57	39.9	1	4	90	0.00	30.047 
08:25	55.1	55.1	55.1	55	39.2	1	3	90	0.00	30.047 
08:30	55.3	55.3	55.3	52	38.0	2	6	112	0.00	30.047 
08:35	55.3	55.3	55.3	52	38.0	2	7	90	0.00	30.047 
08:40	55.3	55.3	55.3	52	38.0	2	5	90	0.00	30.047 
08:45	55.7	55.7	55.7	54	39.3	0	2	135	0.00	30.052 
08:50	56.3	56.3	56.3	51	38.4	1	4	112	0.00	30.052 
08:55	56.3	56.3	56.3	49	37.4	3	9	112	0.00	30.052 
09:00	56.5	56.5	56.5	52	39.1	2	5	90	0.00	30.053 
09:05	56.5	56.5	56.5	51	38.6	1	5	112	0.00	30.053 
09:10	56.6	56.6	56.6	51	38.7	1	5	135	0.00	30.053 
09:15	56.9	56.9	56.9	48	37.4	2	6	90	0.00	30.060 
09:20	56.9	56.9	56.9	49	37.9	2	5	112	0.00	30.060 
09:25	56.9	56.9	56.9	50	38.5	1	5	90	0.00	30.060 
09:30	57.2	57.2	57.2	47	37.2	2	9	112	0.00	30.060 
09:35	57.3	57.3	57.3	52	39.8	2	5	90	0.00	30.060 
09:40	57.2	57.2	57.2	50	38.7	2	5	90	0.00	30.060 
09:45	57.5	57.5	57.5	48	38.0	1	3	112	0.00	30.058 
09:50	58.0	58.0	58.0	47	37.9	2	6	112	0.00	30.058 
09:55	58.0	58.0	58.0	46	37.3	2	7	112	0.00	30.058 
10:00	58.3	58.3	58.3	49	39.2	1	4	135	0.00	30.057 
10:05	58.6	58.6	58.6	52	41.0	1	4	135	0.00	30.057 
10:10	58.7	58.7	58.7	47	38.5	1	4	135	0.00	30.057 
10:15	58.6	58.6	58.6	48	39.0	0	3	270	0.00	30.059 
10:20	58.7	58.7	58.7	46	38.0	1	7	112	0.00	30.059 
10:25	58.4	58.4	58.4	46	37.7	1	5	45	0.00	30.059 
10:30	58.6	58.6	58.6	46	37.9	2	4	135	0.00	30.065 
10:35	58.9	58.9	58.9	45	37.6	2	6	90	0.00	30.065 
10:40	59.0	59.0	59.0	45	37.7	2	10	112	0.00	30.065 
10:45	59.5	59.5	59.5	46	38.7	2	6	112	0.00	30.069 
10:50	59.8	59.8	59.8	48	40.1	1	5	90	0.00	30.069 
10:55	59.8	59.8	59.8	47	39.5	1	3	338	0.00	30.069 
11:00	59.9	59.9	59.9	47	39.6	2	4	112	0.00	30.076 
11:05	60.4	60.4	60.4	46	39.5	1	3	112	0.00	30.076 
11:10	60.5	60.5	60.5	45	39.1	2	5	112	0.00	30.076 
11:15	60.7	60.7	60.7	45	39.2	2	6	112	0.00	30.075 
11:20	61.0	61.0	61.0	47	40.6	2	5	90	0.00	30.075 
11:25	61.3	61.3	61.3	49	42.0	1	3	90	0.00	30.075 
11:30	61.2	61.2	61.2	46	40.3	3	6	112	0.00	30.074 
11:35	60.9	60.9	60.9	47	40.5	2	6	90	0.00	30.074 
11:40	61.2	61.2	61.2	47	40.8	1	5	90	0.00	30.074 
11:45	61.3	61.3	61.3	46	40.3	1	5	315	0.00	30.074 
11:50	61.0	61.0	61.0	52	43.2	2	7	292	0.00	30.074 
11:55	61.5	61.5	61.5	44	39.4	2	6	90	0.00	30.074 
12:00	62.0	62.0	62.0	47	41.5	2	5	90	0.00	30.076 
12:05	62.3	62.3	62.3	47	41.8	1	4	90	0.00	30.076 
12:10	62.6	62.6	62.6	46	41.5	1	3	90	0.00	30.076 
12:15	62.1	62.1	62.1	43	39.3	1	5	45	0.00	30.076 
12:20	62.0	62.0	62.0	43	39.2	2	5	112	0.00	30.076 
12:25	62.3	62.3	62.3	45	40.7	1	5	90	0.00	30.076 
12:30	62.4	62.4	62.4	44	40.2	1	5	90	0.00	30.079 
12:35	62.7	62.7	62.7	45	41.0	1	5	112	0.00	30.079 
12:40	62.3	62.3	62.3	43	39.5	1	3	45	0.00	30.079 
12:45	62.3	62.3	62.3	42	38.9	1	4	0	0.00	30.080 
12:50	62.9	62.9	62.9	45	41.2	1	3	112	0.00	30.080 
12:55	63.2	63.2	63.2	40	38.5	2	5	112	0.00	30.080 
13:00	63.1	63.1	63.1	45	41.4	1	5	22	0.00	30.076 
13:05	63.1	63.1	63.1	42	39.6	1	3	45	0.00	30.076 
13:10	63.5	63.5	63.5	42	40.0	1	3	45	0.00	30.076 
13:15	63.7	63.7	63.7	46	42.5	1	3	112	0.00	30.071 
13:20	63.9	63.9	63.9	44	41.6	1	4	112	0.00	30.071 
13:25	63.5	63.5	63.5	43	40.6	1	4	315	0.00	30.071 
13:30	63.5	63.5	63.5	46	42.3	0	2	270	0.00	30.065 
13:35	63.9	63.9	63.9	43	41.0	0	3	270	0.00	30.065 
13:40	64.0	64.0	64.0	45	42.2	1	4	292	0.00	30.065 
13:45	64.2	64.2	64.2	39	38.7	1	3	292	0.00	30.063 
13:50	64.5	64.5	64.5	41	40.3	1	4	112	0.00	30.063 
13:55	64.7	64.7	64.7	44	42.3	1	5	112	0.00	30.063 
14:00	65.2	65.2	65.2	44	42.7	0	1	112	0.00	30.056 
14:05	65.0	65.0	65.0	41	40.7	2	6	112	0.00	30.056 
14:10	65.2	65.2	65.2	43	42.1	1	3	68	0.00	30.056 
14:15	65.0	65.0	65.0	39	39.4	0	2	68	0.00	30.045 
14:20	65.2	65.2	65.2	43	42.1	1	4	68	0.00	30.045 
14:25	65.0	65.0	65.0	44	42.6	1	4	292	0.00	30.045 
14:30	64.7	64.7	64.7	39	39.2	1	6	90	0.00	30.039 
14:35	64.8	64.8	64.8	42	41.2	1	3	90	0.00	30.039 
14:40	65.2	65.2	65.2	44	42.7	0	2	45	0.00	30.039 
14:45	65.6	65.6	65.6	44	43.1	1	5	90	0.00	30.029 
14:50	65.6	65.6	65.6	41	41.3	1	3	90	0.00	30.029 
14:55	65.2	65.2	65.2	37	38.3	1	3	90	0.00	30.029 
15:00	65.2	65.2	65.2	38	38.9	0	3	90	0.00	30.024 
15:05	65.3	65.3	65.3	39	39.7	1	3	90	0.00	30.024 
15:10	65.6	65.6	65.6	39	40.0	2	6	90	0.00	30.024 
15:15	65.6	65.6	65.6	37	38.6	1	4	90	0.00	30.023 
15:20	66.0	66.0	66.0	34	36.8	2	6	90	0.00	30.023 
15:25	66.3	66.3	66.3	41	41.9	2	5	112	0.00	30.023 
15:30	66.3	66.3	66.3	38	39.9	2	6	112	0.00	30.023 
15:35	66.4	66.4	66.4	37	39.3	1	3	112	0.00	30.023 
15:40	66.1	66.1	66.1	35	37.6	1	3	112	0.00	30.023 
15:45	66.3	66.3	66.3	36	38.5	1	3	112	0.00	30.022 
15:50	66.3	66.3	66.3	37	39.2	1	3	135	0.00	30.022 
15:55	66.9	66.9	66.9	38	40.5	1	4	202	0.00	30.022 
16:00	67.1	67.1	67.1	37	40.0	1	5	112	0.00	30.018 
16:05	66.9	66.9	66.9	37	39.8	2	5	112	0.00	30.018 
16:10	66.9	66.9	66.9	39	41.1	2	5	112	0.00	30.018 
16:15	67.1	67.1	67.1	40	42.0	1	4	112	0.00	30.010 
16:20	67.1	67.1	67.1	38	40.6	1	5	112	0.00	30.010 
16:25	67.1	67.1	67.1	38	40.6	1	5	112	0.00	30.010 
16:30	67.3	67.3	67.3	34	38.0	0	2	112	0.00	30.009 
16:35	67.3	67.3	67.3	33	37.2	1	5	112	0.00	30.009 
16:40	67.1	67.1	67.1	34	37.8	1	2	292	0.00	30.009 
16:45	67.4	67.4	67.4	39	41.6	0	2	292	0.00	30.012 
16:50	67.9	67.9	67.9	38	41.3	1	4	90	0.00	30.012 
16:55	68.1	68.1	68.1	35	39.4	1	4	90	0.00	30.012 
17:00	67.9	67.9	67.9	39	42.0	1	4	90	0.00	30.020 
17:05	67.8	67.8	67.8	36	39.9	1	3	90	0.00	30.020 
17:10	67.8	67.8	67.8	36	39.9	1	4	90	0.00	30.020 
17:15	67.8	67.8	67.8	37	40.6	1	2	90	0.00	30.023 
17:20	68.1	68.1	68.1	41	43.5	0	2	90	0.00	30.023 
17:25	68.6	68.6	68.6	40	43.3	0	1	90	0.00	30.023 
17:30	68.8	68.8	68.8	35	40.0	1	4	90	0.00	30.020 
17:35	68.6	68.6	68.6	33	38.3	1	4	292	0.00	30.020 
17:40	68.1	68.1	68.1	33	37.9	1	3	315	0.00	30.020 
17:45	67.9	67.9	67.9	37	40.7	1	3	315	0.00	30.019 
17:50	67.9	67.9	67.9	35	39.2	0	5	112	0.00	30.019 
17:55	68.1	68.1	68.1	40	42.9	1	3	112	0.00	30.019 
18:00	67.6	67.6	67.6	36	39.7	1	3	112	0.00	30.017 
18:05	67.4	67.4	67.4	39	41.6	1	5	270	0.00	30.017 
18:10	67.1	67.1	67.1	36	39.2	1	2	270	0.00	30.017 
18:15	66.9	66.9	66.9	39	41.1	0	3	270	0.00	30.012 
18:20	66.8	66.8	66.8	40	41.7	0	4	270	0.00	30.012 
18:25	66.6	66.6	66.6	36	38.8	1	4	270	0.00	30.012 
18:30	66.4	66.4	66.4	40	41.3	0	2	270	0.00	30.012 
18:35	66.4	66.4	66.4	37	39.3	0	2	270	0.00	30.012 
18:40	66.4	66.4	66.4	37	39.3	0	3	270	0.00	30.012 
18:45	66.4	66.4	66.4	36	38.6	1	2	270	0.00	30.013 
18:50	66.4	66.4	66.4	37	39.3	1	2	270	0.00	30.013 
18:55	66.4	66.4	66.4	35	37.9	0	2	270	0.00	30.013 
19:00	66.4	66.4	66.4	38	40.0	1	4	270	0.00	30.012 
19:05	66.4	66.4	66.4	38	40.0	0	2	270	0.00	30.012 
19:10	66.4	66.4	66.4	37	39.3	0	2	270	0.00	30.012 
19:15	66.4	66.4	66.4	37	39.3	0	3	270	0.00	30.011 
19:20	66.4	66.4	66.4	37	39.3	0	2	270	0.00	30.011 
19:25	66.3	66.3	66.3	38	39.9	0	3	270	0.00	30.011 
19:30	66.1	66.1	66.1	38	39.7	0	2	270	0.00	30.014 
19:35	66.0	66.0	66.0	36	38.3	0	2	270	0.00	30.014 
19:40	66.1	66.1	66.1	38	39.7	0	2	270	0.00	30.014 
19:45	66.0	66.0	66.0	35	37.6	0	1	270	0.00	30.018 
19:50	66.0	66.0	66.0	38	39.7	0	1	270	0.00	30.018 
19:55	65.8	65.8	65.8	40	40.8	0	0	---	0.00	30.018 
20:00	65.6	65.6	65.6	39	40.0	0	1	270	0.00	30.022 
20:05	65.3	65.3	65.3	38	39.0	0	3	270	0.00	30.022 
20:10	65.3	65.3	65.3	41	41.0	0	1	270	0.00	30.022 
20:15	65.2	65.2	65.2	39	39.6	0	0	---	0.00	30.023 
20:20	65.2	65.2	65.2	39	39.6	0	0	---	0.00	30.023 
20:25	65.0	65.0	65.0	41	40.7	0	1	270	0.00	30.023 
20:30	64.7	64.7	64.7	41	40.5	0	0	---	0.00	30.030 
20:35	64.5	64.5	64.5	41	40.3	0	0	---	0.00	30.030 
20:40	64.2	64.2	64.2	41	40.0	0	0	---	0.00	30.030 
20:45	64.0	64.0	64.0	42	40.4	0	0	---	0.00	30.037 
20:50	63.5	63.5	63.5	41	39.4	0	0	---	0.00	30.037 
20:55	63.2	63.2	63.2	43	40.3	0	0	---	0.00	30.037 
21:00	62.7	62.7	62.7	45	41.0	0	0	---	0.00	30.039 
21:05	62.4	62.4	62.4	47	41.9	0	0	---	0.00	30.039 
21:10	62.0	62.0	62.0	48	42.1	0	0	---	0.00	30.039 
21:15	61.5	61.5	61.5	49	42.2	0	0	---	0.00	30.036 
21:20	61.0	61.0	61.0	50	42.2	0	0	---	0.00	30.036 
21:25	60.5	60.5	60.5	51	42.3	0	0	---	0.00	30.036 
21:30	59.8	59.8	59.8	51	41.6	0	0	---	0.00	30.040 
21:35	59.2	59.2	59.2	53	42.1	0	0	---	0.00	30.040 
21:40	58.7	58.7	58.7	55	42.6	0	0	---	0.00	30.040 
21:45	58.4	58.4	58.4	57	43.2	0	0	---	0.00	30.045 
21:50	58.0	58.0	58.0	58	43.3	0	0	---	0.00	30.045 
21:55	57.5	57.5	57.5	59	43.3	0	0	---	0.00	30.045 
22:00	57.0	57.0	57.0	61	43.7	0	0	---	0.00	30.054 
22:05	56.6	56.6	56.6	62	43.7	0	0	---	0.00	30.054 
22:10	56.3	56.3	56.3	64	44.3	0	0	---	0.00	30.054 
22:15	56.0	56.0	56.0	65	44.4	0	0	---	0.00	30.055 
22:20	55.7	55.7	55.7	67	44.9	0	0	---	0.00	30.055 
22:25	55.3	55.3	55.3	69	45.3	0	0	---	0.00	30.055 
22:30	55.1	55.1	55.1	70	45.5	0	0	---	0.00	30.061 
22:35	54.8	54.8	54.8	71	45.6	0	0	---	0.00	30.061 
22:40	54.7	54.7	54.7	73	46.2	0	0	---	0.00	30.061 
22:45	54.4	54.4	54.4	73	45.9	0	0	---	0.00	30.066 
22:50	54.2	54.2	54.2	75	46.4	0	0	---	0.00	30.066 
22:55	53.9	53.9	53.9	76	46.5	0	0	---	0.00	30.066 
23:00	53.8	53.8	53.8	77	46.8	0	0	---	0.00	30.073 
23:05	53.6	53.6	53.6	76	46.2	0	0	---	0.00	30.073 
23:10	53.3	53.3	53.3	75	45.6	0	0	---	0.00	30.073 
23:15	53.2	53.2	53.2	74	45.1	0	0	---	0.00	30.078 
23:20	53.1	53.1	53.1	75	45.4	0	0	---	0.00	30.078 
23:25	52.9	52.9	52.9	75	45.2	0	0	---	0.00	30.078 
23:30	52.8	52.8	52.8	77	45.8	0	0	---	0.00	30.085 
23:35	52.6	52.6	52.6	77	45.6	0	0	---	0.00	30.085 
23:40	52.5	52.5	52.5	78	45.8	0	0	---	0.00	30.085 
23:45	52.3	52.3	52.3	79	46.0	0	0	---	0.00	30.084 
23:50	52.0	52.0	52.0	79	45.7	0	0	---	0.00	30.084 
23:55	51.9	51.9	51.9	80	45.9	0	0	---	0.00	30.084 

CoCoRaHS
IN-AL-39
A2 Web Hosting
Creative Commons License
GoDaddy
search engine by freefind advanced

loaded 2018-11-19 18:41:50 • last modified 2010-11-18 10:43:29
Privacy PolicyDisclaimer
• wx.awcolley.com is powered by PmWiki v.2002016 •
• all content (unless otherwise noted) © 2018 A W Colley